Main page
METAR-TAF:

METAR-TAF

Airports :

Belfast City, Northern Ireland

George Best Belfast City Airport

latitude: 54-36N, longitude: 005-53W, elevation: 5 m

Current weather observation

The report was made 25 minutes ago, at 02:20 UTC
Wind 5 kt from the South
Temperature 11°C
Humidity 66%
Pressure 1005 hPa
Visibility 10 km or more

METAR: EGAC 220220Z AUTO 18005KT 9999 NCD 11/05 Q1005

Time: 03:45 (02:45 UTC)

Forecast

The report was made 9 hours and 38 minutes ago, at 17:07 UTC
Forecast valid from 21 at 18 UTC to 21 at 21 UTC
Wind 12 kt from the South/Southeast
Visibility 10 km or more
no clouds below 1500 m and no cumulonimbus

TAF: EGAC 211707Z 2118/2121 15012KT CAVOK

Weather observations and forecasts of more than 4000 airports (METAR and TAF reports).

The available stations are represented by yellow and red dots on the map.

Hover mouse over dot to see the name of the station.

Then click to see weather observations and forecasts.

To change the map : click on the green buttons with a black cross to zoom in, on the green button with a dash to zoom out, or on the green arrows for adjacent maps.


METAR-TAF: